Time;durP1;ratioP1;P1;durP2;ratioP2;P2;SDS_P1;SDS_P2;PMS_P1;PMS_P2;Temp;Humidity;BMP_temperature;BMP_pressure;BME280_temperature;BME280_humidity;BME280_pressure;Samples;Min_cycle;Max_cycle;Signal;HPM_P1;HPM_P2
2022/09/25 00:03:24;;;;;;;19.73;5.10;;;;;11.70;101019.00;;;;13041076;22;20603;-74
2022/09/25 00:08:25;;;;;;;9.30;4.40;;;;;11.60;101021.00;;;;13064283;22;20237;-74
2022/09/25 00:13:26;;;;;;;7.53;4.23;;;;;11.60;101022.00;;;;13040427;22;20198;-74
2022/09/25 00:23:48;;;;;;;10.73;4.37;;;;;11.50;101017.00;;;;13042250;22;20221;-74
2022/09/25 00:28:50;;;;;;;16.50;4.10;;;;;11.50;101024.00;;;;13089642;22;20163;-74
2022/09/25 00:33:55;;;;;;;13.07;3.80;;;;;11.50;101028.00;;;;13089317;22;20183;-74
2022/09/25 00:38:57;;;;;;;9.87;4.20;;;;;11.40;101034.00;;;;13016124;22;20246;-74
2022/09/25 00:44:00;;;;;;;13.13;4.27;;;;;11.40;101034.00;;;;13042390;22;20175;-74
2022/09/25 00:49:14;;;;;;;13.73;4.60;;;;;11.30;101036.00;;;;13089838;22;20159;-74
2022/09/25 00:54:20;;;;;;;9.03;4.30;;;;;11.30;101027.00;;;;13043293;22;20168;-74
2022/09/25 00:59:37;;;;;;;14.77;5.10;;;;;11.30;101033.00;;;;13091234;22;20209;-74
2022/09/25 01:04:44;;;;;;;10.33;3.87;;;;;11.20;101046.00;;;;13067798;22;20182;-78
2022/09/25 01:09:46;;;;;;;16.43;4.00;;;;;11.20;101047.00;;;;13025339;22;20253;-78
2022/09/25 01:14:47;;;;;;;10.30;3.33;;;;;11.20;101040.00;;;;13122944;22;20170;-78
2022/09/25 01:20:32;;;;;;;9.43;4.00;;;;;11.10;101047.00;;;;13047452;22;20171;-78
2022/09/25 01:25:33;;;;;;;14.07;3.70;;;;;11.00;101050.00;;;;13053394;22;20622;-78
2022/09/25 01:30:40;;;;;;;12.37;4.30;;;;;11.00;101054.00;;;;13051640;22;20685;-78
2022/09/25 01:35:47;;;;;;;12.20;3.90;;;;;11.00;101049.00;;;;13070556;22;20239;-78
2022/09/25 01:41:00;;;;;;;16.30;3.90;;;;;10.90;101043.00;;;;13097587;22;20178;-78
2022/09/25 01:46:17;;;;;;;9.53;3.43;;;;;10.90;101048.00;;;;13075748;22;20206;-78
2022/09/25 01:51:23;;;;;;;7.23;2.90;;;;;10.70;101052.00;;;;13020489;22;20221;-78
2022/09/25 01:56:41;;;;;;;8.50;3.57;;;;;10.60;101053.00;;;;13023344;22;20176;-78
2022/09/25 02:01:46;;;;;;;10.83;3.47;;;;;10.50;101054.00;;;;13044048;22;20233;-78
2022/09/25 02:06:50;;;;;;;12.07;3.50;;;;;10.40;101049.00;;;;13046932;22;20175;-78
2022/09/25 02:11:57;;;;;;;11.47;3.27;;;;;10.30;101055.00;;;;13025008;22;20200;-78
2022/09/25 02:17:03;;;;;;;18.17;3.87;;;;;10.20;101057.00;;;;13123094;22;20163;-77
2022/09/25 02:22:10;;;;;;;12.50;3.70;;;;;10.10;101052.00;;;;13097443;22;20247;-78
2022/09/25 02:27:12;;;;;;;14.53;3.87;;;;;10.00;101056.00;;;;13022785;22;20332;-78
2022/09/25 02:32:20;;;;;;;11.20;3.60;;;;;10.00;101049.00;;;;13047727;22;20689;-78
2022/09/25 02:37:21;;;;;;;14.07;3.83;;;;;9.90;101056.00;;;;13021295;22;20168;-78
2022/09/25 02:42:58;;;;;;;6.30;3.47;;;;;9.90;101040.00;;;;13096634;22;20159;-78
2022/09/25 02:48:08;;;;;;;11.17;3.57;;;;;9.80;101035.00;;;;13051758;22;20175;-78
2022/09/25 02:53:15;;;;;;;10.93;4.23;;;;;9.80;101027.00;;;;13075893;22;20192;-78
2022/09/25 02:58:38;;;;;;;13.03;3.57;;;;;9.80;101035.00;;;;13052077;22;20198;-78
2022/09/25 03:03:40;;;;;;;23.13;4.93;;;;;9.70;101038.00;;;;13050531;22;20171;-78
2022/09/25 03:08:50;;;;;;;15.40;3.87;;;;;9.60;101047.00;;;;13099590;22;20217;-78
2022/09/25 03:14:00;;;;;;;16.63;4.60;;;;;9.60;101039.00;;;;13045581;22;20706;-78
2022/09/25 03:19:02;;;;;;;10.17;3.77;;;;;9.50;101041.00;;;;13071321;22;20160;-78
2022/09/25 03:24:03;;;;;;;11.57;3.77;;;;;9.50;101049.00;;;;13019657;22;20187;-78
2022/09/25 03:29:05;;;;;;;12.93;4.53;;;;;9.50;101052.00;;;;13067054;22;20156;-78
2022/09/25 03:34:07;;;;;;;14.07;3.87;;;;;9.40;101046.00;;;;13069921;22;20183;-78
2022/09/25 03:39:09;;;;;;;11.83;4.03;;;;;9.30;101049.00;;;;13074119;22;20176;-78
2022/09/25 03:44:11;;;;;;;12.80;4.37;;;;;9.20;101041.00;;;;13121245;22;20250;-78
2022/09/25 03:49:12;;;;;;;14.63;5.70;;;;;9.20;101050.00;;;;13066029;22;20246;-78
2022/09/25 03:54:14;;;;;;;12.50;4.90;;;;;9.10;101045.00;;;;13092558;22;20184;-78
2022/09/25 03:59:15;;;;;;;17.07;5.33;;;;;9.10;101049.00;;;;13066687;22;20163;-78
2022/09/25 04:04:17;;;;;;;14.80;5.20;;;;;9.10;101048.00;;;;13069631;22;20614;-78
2022/09/25 04:09:18;;;;;;;14.70;5.33;;;;;9.00;101049.00;;;;13047992;22;20191;-78
2022/09/25 04:14:19;;;;;;;16.20;6.20;;;;;9.00;101050.00;;;;13095794;22;20212;-78
2022/09/25 04:19:20;;;;;;;17.50;5.77;;;;;9.00;101052.00;;;;13068871;22;20213;-78
2022/09/25 04:29:41;;;;;;;8.73;5.77;;;;;8.90;101041.00;;;;13096683;22;20233;-78
2022/09/25 04:34:42;;;;;;;14.20;6.80;;;;;8.80;101044.00;;;;13071609;22;20171;-78
2022/09/25 04:39:43;;;;;;;13.90;6.53;;;;;8.70;101045.00;;;;13071579;22;21237;-78
2022/09/25 04:44:45;;;;;;;13.53;6.57;;;;;8.50;101046.00;;;;13068967;22;20160;-78
2022/09/25 04:49:46;;;;;;;13.93;6.80;;;;;8.40;101046.00;;;;13070403;22;20183;-78
2022/09/25 04:54:48;;;;;;;25.20;7.77;;;;;8.30;101041.00;;;;13095221;22;20242;-78
2022/09/25 04:59:49;;;;;;;15.00;6.27;;;;;8.20;101050.00;;;;13027812;22;20171;-78
2022/09/25 05:04:51;;;;;;;14.97;7.40;;;;;8.10;101047.00;;;;13075170;22;20163;-78
2022/09/25 05:09:52;;;;;;;15.90;6.70;;;;;8.00;101044.00;;;;13003608;22;20191;-78
2022/09/25 05:14:53;;;;;;;11.93;6.47;;;;;7.90;101037.00;;;;13098132;22;20168;-77
2022/09/25 05:19:54;;;;;;;12.53;6.43;;;;;7.90;101038.00;;;;13070693;22;20164;-78
2022/09/25 05:24:56;;;;;;;18.53;6.47;;;;;7.90;101041.00;;;;13026144;22;20183;-78
2022/09/25 05:30:00;;;;;;;14.43;6.30;;;;;7.80;101033.00;;;;13071346;22;20179;-78
2022/09/25 05:35:02;;;;;;;15.43;6.47;;;;;7.70;101037.00;;;;13124842;22;20552;-78
2022/09/25 05:40:04;;;;;;;11.83;5.97;;;;;7.70;101042.00;;;;13045593;22;20171;-78
2022/09/25 05:45:06;;;;;;;15.13;5.53;;;;;7.70;101046.00;;;;13060198;22;20167;-78
2022/09/25 05:50:11;;;;;;;9.67;5.57;;;;;7.70;101051.00;;;;13022903;22;20286;-78
2022/09/25 05:55:12;;;;;;;20.87;6.60;;;;;7.70;101043.00;;;;13044847;22;20208;-78
2022/09/25 06:00:15;;;;;;;10.57;5.70;;;;;7.80;101055.00;;;;13123728;22;20179;-78
2022/09/25 06:05:16;;;;;;;12.07;7.17;;;;;7.80;101051.00;;;;13049515;22;20178;-78
2022/09/25 06:10:17;;;;;;;13.47;6.07;;;;;7.80;101043.00;;;;13045952;22;20252;-78
2022/09/25 06:15:18;;;;;;;10.57;7.63;;;;;8.20;101043.00;;;;12998730;22;20312;-78
2022/09/25 06:20:21;;;;;;;12.73;7.57;;;;;8.50;101037.00;;;;13048691;22;20172;-78
2022/09/25 06:25:24;;;;;;;21.57;8.83;;;;;8.70;101033.00;;;;13026211;22;20198;-78
2022/09/25 06:30:33;;;;;;;18.37;9.47;;;;;9.00;101040.00;;;;13072985;22;20238;-78
2022/09/25 06:35:42;;;;;;;14.03;8.60;;;;;9.30;101044.00;;;;13048774;22;20597;-78
2022/09/25 06:40:43;;;;;;;21.67;8.63;;;;;9.50;101047.00;;;;13049216;22;20816;-78
2022/09/25 06:45:46;;;;;;;14.03;7.83;;;;;9.80;101048.00;;;;13072171;22;20162;-77
2022/09/25 06:50:51;;;;;;;22.17;8.40;;;;;10.20;101050.00;;;;13047665;22;20232;-78
2022/09/25 06:55:56;;;;;;;17.03;8.30;;;;;10.40;101053.00;;;;13070211;22;20163;-78
2022/09/25 07:00:58;;;;;;;23.27;7.57;;;;;10.60;101046.00;;;;13020226;22;20179;-78
2022/09/25 07:06:00;;;;;;;18.97;8.33;;;;;10.70;101053.00;;;;13017658;22;20171;-77
2022/09/25 07:11:02;;;;;;;17.33;8.67;;;;;10.90;101070.00;;;;13019798;22;20191;-78
2022/09/25 07:16:05;;;;;;;17.87;9.37;;;;;11.00;101068.00;;;;13066725;22;20225;-78
2022/09/25 07:21:09;;;;;;;14.20;8.33;;;;;11.20;101071.00;;;;13091936;22;20532;-77
2022/09/25 07:26:22;;;;;;;16.50;9.00;;;;;11.40;101055.00;;;;13091035;22;20167;-77
2022/09/25 07:31:26;;;;;;;19.47;9.83;;;;;11.60;101067.00;;;;13086928;22;20472;-77
2022/09/25 07:36:28;;;;;;;14.10;9.40;;;;;11.80;101073.00;;;;13040557;22;20495;-77
2022/09/25 07:41:29;;;;;;;13.53;8.57;;;;;12.00;101073.00;;;;13014713;22;20168;-77
2022/09/25 07:46:30;;;;;;;13.53;7.60;;;;;12.20;101079.00;;;;13040695;22;20166;-77
2022/09/25 07:51:32;;;;;;;11.97;7.47;;;;;12.40;101075.00;;;;13040609;22;20191;-77
2022/09/25 07:56:33;;;;;;;16.90;7.20;;;;;12.60;101076.00;;;;13085529;22;20815;-77
2022/09/25 08:01:34;;;;;;;14.23;7.23;;;;;12.90;101077.00;;;;13061830;22;20160;-77
2022/09/25 08:06:43;;;;;;;9.17;6.80;;;;;13.20;101078.00;;;;13041165;22;20236;-77
2022/09/25 08:11:44;;;;;;;11.50;5.67;;;;;13.40;101080.00;;;;13062547;22;20195;-77
2022/09/25 08:16:46;;;;;;;11.00;6.20;;;;;13.60;101082.00;;;;13038329;22;20159;-77
2022/09/25 08:21:48;;;;;;;15.83;5.97;;;;;14.10;101080.00;;;;13016747;22;20543;-77
2022/09/25 08:26:49;;;;;;;8.60;5.40;;;;;14.30;101087.00;;;;13044074;22;20171;-78
2022/09/25 08:31:51;;;;;;;14.00;4.50;;;;;14.60;101078.00;;;;13067456;22;20190;-77
2022/09/25 08:36:52;;;;;;;7.28;3.92;;;;;14.70;101082.00;;;;13045101;22;20168;-78
2022/09/25 08:41:54;;;;;;;9.30;3.42;;;;;15.00;101086.00;;;;13046545;22;20167;-78
2022/09/25 08:52:21;;;;;;;5.72;2.50;;;;;15.90;101075.00;;;;13046646;22;20195;-78
2022/09/25 08:57:38;;;;;;;3.80;2.10;;;;;16.10;101075.00;;;;13043219;22;20180;-77
2022/09/25 09:02:46;;;;;;;4.50;2.15;;;;;16.40;101076.00;;;;13071143;22;20173;-78
2022/09/25 09:07:56;;;;;;;3.38;1.50;;;;;16.90;101070.00;;;;13044059;22;20173;-78
2022/09/25 09:12:59;;;;;;;5.03;1.52;;;;;17.20;101072.00;;;;13092163;22;20217;-77
2022/09/25 09:18:15;;;;;;;5.57;1.23;;;;;17.50;101072.00;;;;13089335;22;20163;-77
2022/09/25 09:23:20;;;;;;;7.45;1.60;;;;;17.30;101074.00;;;;13042740;22;20765;-77
2022/09/25 09:29:07;;;;;;;5.75;1.25;;;;;17.70;101069.00;;;;12990846;22;20661;-77
2022/09/25 09:34:33;;;;;;;4.85;1.45;;;;;18.30;101083.00;;;;13042425;22;20650;-77
2022/09/25 09:40:20;;;;;;;3.50;1.08;;;;;18.00;101079.00;;;;13113857;22;20190;-75
2022/09/25 09:45:48;;;;;;;2.70;1.45;;;;;17.60;101071.00;;;;13064157;22;20187;-77
2022/09/25 09:50:53;;;;;;;4.43;1.38;;;;;18.40;101066.00;;;;13041614;22;20591;-77
2022/09/25 09:56:00;;;;;;;3.17;1.00;;;;;19.00;101070.00;;;;13090659;22;20199;-76
2022/09/25 10:01:02;;;;;;;2.20;0.93;;;;;17.90;101073.00;;;;13116450;22;20217;-77
2022/09/25 10:06:27;;;;;;;3.45;1.00;;;;;17.00;101071.00;;;;13040878;22;20171;-77
2022/09/25 10:11:31;;;;;;;2.45;0.65;;;;;16.30;101060.00;;;;13066670;22;20642;-77
2022/09/25 10:16:32;;;;;;;4.13;0.90;;;;;18.20;101055.00;;;;13115594;22;20160;-77
2022/09/25 10:21:41;;;;;;;2.75;1.10;;;;;19.40;101060.00;;;;13089037;22;20258;-77
2022/09/25 10:26:43;;;;;;;4.68;1.10;;;;;20.30;101057.00;;;;13062294;22;20159;-75
2022/09/25 10:31:45;;;;;;;1.95;0.70;;;;;20.80;101061.00;;;;13016031;22;20206;-77
2022/09/25 10:36:50;;;;;;;3.75;1.10;;;;;19.50;101086.00;;;;13063488;22;20176;-75
2022/09/25 10:41:51;;;;;;;3.83;1.17;;;;;19.40;101082.00;;;;13062724;22;20163;-75
2022/09/25 10:52:16;;;;;;;3.88;1.33;;;;;17.10;101078.00;;;;13039950;22;20191;-77
2022/09/25 10:57:37;;;;;;;4.70;1.30;;;;;16.60;101064.00;;;;13063830;22;20164;-77
2022/09/25 11:02:41;;;;;;;7.15;1.10;;;;;16.30;101052.00;;;;13041352;22;20172;-77
2022/09/25 11:07:53;;;;;;;2.40;0.75;;;;;19.10;101053.00;;;;13088970;22;20174;-77
2022/09/25 11:12:56;;;;;;;5.75;0.77;;;;;20.30;101050.00;;;;13039643;22;20487;-76
2022/09/25 11:17:58;;;;;;;4.38;1.15;;;;;21.40;101048.00;;;;13015179;22;20499;-76
2022/09/25 11:23:18;;;;;;;1.17;0.60;;;;;20.00;101062.00;;;;13063178;22;20171;-76
2022/09/25 11:28:32;;;;;;;2.50;0.68;;;;;19.40;101073.00;;;;13015551;22;20171;-76
2022/09/25 11:33:48;;;;;;;1.20;0.68;;;;;18.60;101068.00;;;;13013700;22;20202;-75
2022/09/25 11:44:34;;;;;;;5.55;1.77;;;;;18.00;101066.00;;;;13088172;22;20269;-77
2022/09/25 11:49:38;;;;;;;3.83;1.58;;;;;18.00;101059.00;;;;13042743;22;20167;-77
2022/09/25 11:55:21;;;;;;;3.88;1.42;;;;;17.90;101052.00;;;;12989811;22;20205;-78
2022/09/25 12:00:43;;;;;;;2.88;1.20;;;;;18.30;101047.00;;;;12932532;22;20774;-75
2022/09/25 12:06:06;;;;;;;2.50;0.80;;;;;18.30;101032.00;;;;13028887;22;20699;-77
2022/09/25 12:11:44;;;;;;;2.22;1.25;;;;;18.30;101026.00;;;;13115194;22;20236;-77
2022/09/25 12:17:13;;;;;;;2.70;1.23;;;;;18.50;101022.00;;;;13016981;22;20250;-77
2022/09/25 12:22:24;;;;;;;2.72;1.20;;;;;19.00;101015.00;;;;13036521;22;20488;-75
2022/09/25 12:27:31;;;;;;;3.70;1.20;;;;;18.90;101017.00;;;;13113526;22;20223;-77
2022/09/25 12:32:40;;;;;;;4.47;1.70;;;;;18.50;101015.00;;;;13015967;22;20195;-78
2022/09/25 12:37:46;;;;;;;2.42;0.77;;;;;18.30;101017.00;;;;13062707;22;20166;-77
2022/09/25 12:43:20;;;;;;;6.35;0.82;;;;;18.20;101004.00;;;;13088293;22;20707;-78
2022/09/25 12:48:33;;;;;;;3.15;0.80;;;;;18.50;101001.00;;;;13041454;22;20191;-78
2022/09/25 12:53:38;;;;;;;1.15;0.68;;;;;18.50;101000.00;;;;13063080;22;20266;-77
2022/09/25 12:58:50;;;;;;;3.22;0.90;;;;;18.30;100994.00;;;;13041191;22;20301;-77
2022/09/25 13:04:17;;;;;;;2.08;0.70;;;;;18.20;100985.00;;;;13088599;22;20594;-77
2022/09/25 13:09:33;;;;;;;3.15;0.90;;;;;18.30;100976.00;;;;13041741;22;20184;-78
2022/09/25 13:14:45;;;;;;;1.88;0.90;;;;;18.80;100978.00;;;;13090839;22;20179;-77
2022/09/25 13:19:46;;;;;;;3.15;0.98;;;;;19.30;100971.00;;;;13042605;22;20171;-77
2022/09/25 13:24:50;;;;;;;1.73;0.80;;;;;20.80;100966.00;;;;13046552;22;20178;-78
2022/09/25 13:29:56;;;;;;;1.38;0.60;;;;;22.00;100966.00;;;;13069686;22;20163;-78
2022/09/25 13:35:03;;;;;;;5.80;1.10;;;;;22.00;100961.00;;;;13023110;22;20167;-78
2022/09/25 13:40:41;;;;;;;2.10;0.77;;;;;23.90;100941.00;;;;13092001;22;20187;-78
2022/09/25 13:45:42;;;;;;;3.03;0.90;;;;;24.50;100943.00;;;;13072818;22;20167;-78
2022/09/25 13:50:45;;;;;;;2.10;0.80;;;;;22.60;100940.00;;;;13019759;22;20191;-78
2022/09/25 13:55:56;;;;;;;1.38;0.65;;;;;23.20;100917.00;;;;13045038;22;20168;-78
2022/09/25 14:00:58;;;;;;;1.83;0.73;;;;;23.40;100923.00;;;;13069717;22;20786;-78
2022/09/25 14:06:01;;;;;;;1.73;0.90;;;;;20.60;100919.00;;;;13089375;22;20243;-78
2022/09/25 14:11:07;;;;;;;2.10;1.10;;;;;19.50;100918.00;;;;13070133;22;20875;-77
2022/09/25 14:16:18;;;;;;;2.90;0.98;;;;;20.20;100920.00;;;;13090014;22;20657;-77
2022/09/25 14:21:21;;;;;;;2.03;0.88;;;;;20.70;100900.00;;;;13041741;22;20168;-78
2022/09/25 14:26:25;;;;;;;1.67;0.70;;;;;19.30;100912.00;;;;13089837;22;20186;-77
2022/09/25 14:31:33;;;;;;;1.48;0.80;;;;;19.40;100907.00;;;;13066064;22;20215;-77
2022/09/25 14:37:00;;;;;;;1.80;0.75;;;;;19.20;100910.00;;;;13037555;22;20164;-77
2022/09/25 14:42:29;;;;;;;2.75;0.90;;;;;18.90;100907.00;;;;13088530;22;20163;-77
2022/09/25 14:47:46;;;;;;;1.27;0.77;;;;;18.70;100892.00;;;;13064774;22;20163;-77
2022/09/25 14:52:49;;;;;;;1.00;0.65;;;;;18.30;100898.00;;;;13088159;22;20183;-77
2022/09/25 14:57:50;;;;;;;1.98;0.70;;;;;17.70;100894.00;;;;13042154;22;20171;-77
2022/09/25 15:02:54;;;;;;;4.05;1.00;;;;;17.30;100886.00;;;;13089067;22;20186;-77
2022/09/25 15:07:58;;;;;;;3.85;1.08;;;;;17.00;100883.00;;;;13087763;22;20179;-77
2022/09/25 15:13:09;;;;;;;1.83;0.70;;;;;16.80;100893.00;;;;13062210;22;20202;-77
2022/09/25 15:18:12;;;;;;;3.17;0.98;;;;;16.80;100888.00;;;;13014633;22;20258;-77
2022/09/25 15:23:20;;;;;;;3.10;1.35;;;;;16.90;100890.00;;;;13039292;22;20167;-77
2022/09/25 15:28:24;;;;;;;3.63;1.63;;;;;17.10;100877.00;;;;13063254;22;20195;-77
2022/09/25 15:33:28;;;;;;;4.65;1.38;;;;;17.10;100876.00;;;;13061842;22;20217;-77
2022/09/25 15:38:31;;;;;;;2.35;1.27;;;;;17.10;100875.00;;;;13040652;22;20167;-77
2022/09/25 15:43:32;;;;;;;3.40;1.10;;;;;17.10;100871.00;;;;13116291;22;20250;-77
2022/09/25 15:48:37;;;;;;;3.05;1.17;;;;;17.10;100876.00;;;;13040440;22;20198;-77
2022/09/25 15:53:42;;;;;;;10.13;3.85;;;;;17.10;100872.00;;;;13088545;22;20184;-77
2022/09/25 15:58:48;;;;;;;0.55;0.50;;;;;17.00;100871.00;;;;13041171;22;20164;-77
2022/09/25 16:09:32;;;;;;;1.95;0.70;;;;;16.40;100869.00;;;;13038416;22;20191;-77
2022/09/25 16:14:33;;;;;;;3.22;0.90;;;;;16.10;100864.00;;;;13012104;22;20207;-77
2022/09/25 16:19:35;;;;;;;2.22;0.50;;;;;15.90;100869.00;;;;13040983;22;20207;-77
2022/09/25 16:24:36;;;;;;;1.25;0.40;;;;;15.60;100874.00;;;;13114308;22;20202;-77
2022/09/25 16:29:38;;;;;;;2.08;0.73;;;;;15.30;100872.00;;;;13086305;22;20171;-77
2022/09/25 16:34:40;;;;;;;2.50;0.60;;;;;15.10;100884.00;;;;13039800;22;20391;-77
2022/09/25 16:39:41;;;;;;;2.33;0.68;;;;;14.80;100895.00;;;;13087611;22;20690;-77
2022/09/25 16:44:45;;;;;;;1.85;0.63;;;;;14.60;100886.00;;;;13041574;22;20661;-77
2022/09/25 16:49:48;;;;;;;3.63;1.13;;;;;14.50;100885.00;;;;13090513;22;20244;-77
2022/09/25 16:54:52;;;;;;;1.10;1.00;;;;;14.30;100891.00;;;;13042128;22;20195;-77
2022/09/25 16:59:53;;;;;;;2.20;1.07;;;;;14.10;100889.00;;;;13064387;22;20159;-77
2022/09/25 17:04:54;;;;;;;0.80;0.70;;;;;14.00;100882.00;;;;13091565;22;20515;-77
2022/09/25 17:09:57;;;;;;;2.50;1.13;;;;;13.90;100882.00;;;;13062908;22;20194;-77
2022/09/25 17:14:59;;;;;;;4.10;1.10;;;;;13.90;100890.00;;;;13089174;22;20164;-77
2022/09/25 17:20:00;;;;;;;2.60;1.13;;;;;13.80;100891.00;;;;13063393;22;20186;-77
2022/09/25 17:25:14;;;;;;;3.70;1.10;;;;;13.80;100879.00;;;;13043034;22;20263;-77
2022/09/25 17:30:16;;;;;;;3.27;0.90;;;;;13.70;100884.00;;;;13040843;22;20618;-77
2022/09/25 17:35:32;;;;;;;1.87;1.40;;;;;13.60;100867.00;;;;13088011;22;20239;-77
2022/09/25 17:40:33;;;;;;;2.60;1.60;;;;;13.50;100858.00;;;;13042573;22;20175;-77
2022/09/25 17:45:50;;;;;;;2.67;0.93;;;;;13.40;100855.00;;;;13017100;22;20182;-77
2022/09/25 17:50:57;;;;;;;1.83;1.10;;;;;13.30;100850.00;;;;13061942;22;20190;-77
2022/09/25 17:55:59;;;;;;;3.87;1.27;;;;;13.20;100851.00;;;;13066625;22;20168;-77
2022/09/25 18:01:03;;;;;;;2.00;1.23;;;;;13.10;100855.00;;;;13013900;22;20182;-77
2022/09/25 18:06:05;;;;;;;4.37;1.23;;;;;12.90;100844.00;;;;13090685;22;20213;-77
2022/09/25 18:11:09;;;;;;;3.03;1.60;;;;;12.70;100843.00;;;;13040369;22;20274;-77
2022/09/25 18:16:17;;;;;;;2.27;1.33;;;;;12.60;100848.00;;;;13088292;22;20238;-77
2022/09/25 18:26:41;;;;;;;7.50;1.70;;;;;12.20;100839.00;;;;13038839;22;20163;-77
2022/09/25 18:31:43;;;;;;;4.07;1.50;;;;;12.00;100844.00;;;;12989638;22;20244;-77
2022/09/25 18:36:44;;;;;;;4.03;2.00;;;;;12.00;100835.00;;;;13041118;22;20595;-77
2022/09/25 18:41:46;;;;;;;2.47;1.97;;;;;12.00;100831.00;;;;13087676;22;20160;-77
2022/09/25 18:46:49;;;;;;;2.13;1.90;;;;;12.10;100831.00;;;;13063611;22;20181;-76
2022/09/25 18:51:50;;;;;;;4.70;1.93;;;;;12.10;100834.00;;;;13014771;22;20188;-77
2022/09/25 18:56:51;;;;;;;3.30;1.73;;;;;12.10;100832.00;;;;13015106;22;20182;-77
2022/09/25 19:01:54;;;;;;;4.80;2.10;;;;;12.00;100819.00;;;;13039190;22;20167;-77
2022/09/25 19:06:55;;;;;;;3.10;1.70;;;;;12.00;100817.00;;;;13088210;22;20167;-77
2022/09/25 19:11:57;;;;;;;4.83;2.10;;;;;11.90;100811.00;;;;13065397;22;20263;-77
2022/09/25 19:16:58;;;;;;;2.83;1.80;;;;;11.90;100811.00;;;;13040160;22;20167;-77
2022/09/25 19:22:00;;;;;;;3.67;2.10;;;;;11.80;100812.00;;;;13088411;22;20622;-77
2022/09/25 19:27:04;;;;;;;3.43;1.97;;;;;11.80;100809.00;;;;13016078;22;20172;-77
2022/09/25 19:32:08;;;;;;;2.37;1.70;;;;;11.70;100805.00;;;;13060663;22;20805;-77
2022/09/25 19:37:09;;;;;;;3.93;1.87;;;;;11.70;100799.00;;;;13015903;22;20229;-77
2022/09/25 19:42:11;;;;;;;5.97;2.37;;;;;11.60;100806.00;;;;13065522;22;20197;-77
2022/09/25 19:47:12;;;;;;;6.20;3.10;;;;;11.50;100798.00;;;;13067052;22;20217;-77
2022/09/25 19:52:13;;;;;;;6.37;2.57;;;;;11.40;100801.00;;;;13087233;22;20187;-77
2022/09/25 19:57:14;;;;;;;3.83;2.63;;;;;11.40;100797.00;;;;13034504;22;20159;-77
2022/09/25 20:02:16;;;;;;;5.17;2.80;;;;;11.20;100785.00;;;;13088397;22;20171;-77
2022/09/25 20:07:18;;;;;;;4.87;2.70;;;;;11.10;100775.00;;;;13062167;22;20155;-77
2022/09/25 20:12:19;;;;;;;3.03;2.00;;;;;11.00;100770.00;;;;13013703;22;20195;-77
2022/09/25 20:17:21;;;;;;;3.53;2.13;;;;;11.00;100778.00;;;;13040484;22;20167;-77
2022/09/25 20:22:22;;;;;;;11.00;2.53;;;;;11.00;100769.00;;;;13038613;22;20163;-77
2022/09/25 20:27:24;;;;;;;3.50;1.77;;;;;11.00;100764.00;;;;13087656;22;20159;-77
2022/09/25 20:32:25;;;;;;;8.73;2.47;;;;;11.00;100747.00;;;;13042625;22;20507;-77
2022/09/25 20:37:27;;;;;;;4.43;2.37;;;;;10.90;100744.00;;;;13035835;22;20171;-76
2022/09/25 20:42:28;;;;;;;3.03;2.60;;;;;10.80;100743.00;;;;13040956;22;20605;-77
2022/09/25 20:47:32;;;;;;;4.97;2.83;;;;;10.70;100745.00;;;;13117311;22;20171;-76
2022/09/25 20:52:33;;;;;;;5.47;2.80;;;;;10.60;100733.00;;;;13016076;22;20200;-76
2022/09/25 20:57:34;;;;;;;4.07;2.70;;;;;10.50;100738.00;;;;13087371;22;20171;-76
2022/09/25 21:02:36;;;;;;;6.33;3.63;;;;;10.40;100732.00;;;;13037988;22;20638;-77
2022/09/25 21:07:37;;;;;;;5.53;3.20;;;;;10.40;100726.00;;;;13063872;22;20160;-76
2022/09/25 21:12:38;;;;;;;5.30;3.73;;;;;10.40;100724.00;;;;13041249;22;20187;-77
2022/09/25 21:17:39;;;;;;;4.90;3.30;;;;;10.30;100708.00;;;;13068079;22;20171;-76
2022/09/25 21:22:41;;;;;;;4.93;3.87;;;;;10.30;100707.00;;;;13063155;22;20166;-76
2022/09/25 21:27:42;;;;;;;5.33;4.37;;;;;10.40;100679.00;;;;13088163;22;20168;-77
2022/09/25 21:32:43;;;;;;;9.03;5.70;;;;;10.40;100692.00;;;;13042407;22;20191;-77
2022/09/25 21:37:44;;;;;;;8.93;4.33;;;;;10.40;100687.00;;;;13016840;22;20658;-77
2022/09/25 21:42:45;;;;;;;6.20;4.53;;;;;10.30;100688.00;;;;13117917;22;20175;-77
2022/09/25 21:47:48;;;;;;;9.27;5.40;;;;;10.20;100692.00;;;;13044366;22;20191;-77
2022/09/25 21:52:50;;;;;;;6.53;5.37;;;;;10.10;100696.00;;;;13066746;22;20218;-77
2022/09/25 21:57:51;;;;;;;8.53;5.90;;;;;10.00;100693.00;;;;13016786;22;20210;-77
2022/09/25 22:02:52;;;;;;;8.20;5.77;;;;;9.90;100711.00;;;;13044392;22;20163;-77
2022/09/25 22:07:54;;;;;;;11.50;5.87;;;;;9.90;100702.00;;;;13091245;22;20187;-77
2022/09/25 22:12:56;;;;;;;10.13;5.97;;;;;10.00;100698.00;;;;13120054;22;20186;-77
2022/09/25 22:17:57;;;;;;;7.30;5.37;;;;;10.00;100691.00;;;;13065484;22;20672;-77
2022/09/25 22:22:58;;;;;;;10.03;5.57;;;;;10.10;100682.00;;;;13017809;22;20167;-77
2022/09/25 22:28:00;;;;;;;6.20;5.30;;;;;10.20;100682.00;;;;13043923;22;20163;-77
2022/09/25 22:33:01;;;;;;;9.20;5.50;;;;;10.40;100677.00;;;;13091457;22;20274;-77
2022/09/25 22:38:03;;;;;;;8.73;4.90;;;;;10.50;100675.00;;;;13065691;22;20205;-77
2022/09/25 22:43:05;;;;;;;9.03;5.07;;;;;10.70;100682.00;;;;13090841;22;20167;-77
2022/09/25 22:48:07;;;;;;;10.53;5.30;;;;;10.80;100675.00;;;;13066774;22;20174;-77
2022/09/25 22:53:08;;;;;;;9.73;5.30;;;;;10.90;100672.00;;;;13016628;22;20763;-77
2022/09/25 22:58:09;;;;;;;5.17;4.67;;;;;11.00;100670.00;;;;13019307;22;20683;-77
2022/09/25 23:03:10;;;;;;;7.73;4.60;;;;;11.10;100655.00;;;;12992914;22;20652;-77
2022/09/25 23:08:11;;;;;;;6.43;4.23;;;;;11.10;100643.00;;;;13018632;22;20282;-77
2022/09/25 23:13:13;;;;;;;7.37;4.13;;;;;11.20;100630.00;;;;13089827;22;20187;-77
2022/09/25 23:18:14;;;;;;;7.70;4.03;;;;;11.20;100618.00;;;;13088598;22;20198;-77
2022/09/25 23:23:15;;;;;;;6.63;3.43;;;;;11.20;100606.00;;;;13016017;22;20606;-77
2022/09/25 23:28:16;;;;;;;6.17;4.00;;;;;11.30;100600.00;;;;13016334;22;20171;-77
2022/09/25 23:33:17;;;;;;;8.03;4.27;;;;;11.30;100590.00;;;;13016661;22;20195;-77
2022/09/25 23:38:18;;;;;;;4.97;3.40;;;;;11.30;100569.00;;;;13017812;22;20569;-77
2022/09/25 23:43:19;;;;;;;9.07;3.90;;;;;11.30;100570.00;;;;13042226;22;20686;-77
2022/09/25 23:48:21;;;;;;;6.43;3.70;;;;;11.30;100565.00;;;;13042097;22;20290;-77
2022/09/25 23:53:22;;;;;;;9.03;3.93;;;;;11.40;100553.00;;;;13037205;22;20179;-77
2022/09/25 23:58:24;;;;;;;4.83;3.30;;;;;11.40;100559.00;;;;13041180;22;20626;-77
